sensor_id;sensor_type;location;lat;lon;timestamp;P1;durP1;ratioP1;P2;durP2;ratioP2
3643;SDS011;1838;50.742;7.158;2024-01-15T00:01:17;33.00;;;11.77;;
3643;SDS011;1838;50.742;7.158;2024-01-15T00:03:42;26.37;;;10.83;;
3643;SDS011;1838;50.742;7.158;2024-01-15T00:06:08;36.00;;;13.57;;
3643;SDS011;1838;50.742;7.158;2024-01-15T00:08:33;27.73;;;12.40;;
3643;SDS011;1838;50.742;7.158;2024-01-15T00:10:59;30.50;;;12.60;;
3643;SDS011;1838;50.742;7.158;2024-01-15T00:13:24;31.80;;;12.17;;
3643;SDS011;1838;50.742;7.158;2024-01-15T00:15:50;26.10;;;10.47;;
3643;SDS011;1838;50.742;7.158;2024-01-15T00:18:15;24.40;;;10.80;;
3643;SDS011;1838;50.742;7.158;2024-01-15T00:20:41;34.10;;;12.50;;
3643;SDS011;1838;50.742;7.158;2024-01-15T00:23:06;29.87;;;12.40;;
3643;SDS011;1838;50.742;7.158;2024-01-15T00:25:32;51.23;;;13.90;;
3643;SDS011;1838;50.742;7.158;2024-01-15T00:27:57;31.30;;;12.57;;
3643;SDS011;1838;50.742;7.158;2024-01-15T00:30:23;28.83;;;11.63;;
3643;SDS011;1838;50.742;7.158;2024-01-15T00:32:48;39.83;;;12.10;;
3643;SDS011;1838;50.742;7.158;2024-01-15T00:35:14;29.20;;;11.83;;
3643;SDS011;1838;50.742;7.158;2024-01-15T00:37:39;30.97;;;11.93;;
3643;SDS011;1838;50.742;7.158;2024-01-15T00:40:05;25.40;;;11.20;;
3643;SDS011;1838;50.742;7.158;2024-01-15T00:42:32;26.43;;;11.60;;
3643;SDS011;1838;50.742;7.158;2024-01-15T00:44:58;27.53;;;11.20;;
3643;SDS011;1838;50.742;7.158;2024-01-15T00:47:23;37.47;;;14.10;;
3643;SDS011;1838;50.742;7.158;2024-01-15T00:49:49;29.87;;;12.00;;
3643;SDS011;1838;50.742;7.158;2024-01-15T00:52:14;34.03;;;12.07;;
3643;SDS011;1838;50.742;7.158;2024-01-15T00:54:40;31.33;;;13.20;;
3643;SDS011;1838;50.742;7.158;2024-01-15T00:57:05;28.23;;;12.30;;
3643;SDS011;1838;50.742;7.158;2024-01-15T00:59:31;31.53;;;14.13;;
3643;SDS011;1838;50.742;7.158;2024-01-15T01:01:56;27.53;;;13.17;;
3643;SDS011;1838;50.742;7.158;2024-01-15T01:04:22;33.50;;;12.93;;
3643;SDS011;1838;50.742;7.158;2024-01-15T01:06:47;33.57;;;14.10;;
3643;SDS011;1838;50.742;7.158;2024-01-15T01:09:13;33.27;;;12.40;;
3643;SDS011;1838;50.742;7.158;2024-01-15T01:11:38;31.87;;;13.00;;
3643;SDS011;1838;50.742;7.158;2024-01-15T01:14:04;26.87;;;11.50;;
3643;SDS011;1838;50.742;7.158;2024-01-15T01:16:30;30.87;;;12.30;;
3643;SDS011;1838;50.742;7.158;2024-01-15T01:18:56;36.93;;;13.20;;
3643;SDS011;1838;50.742;7.158;2024-01-15T01:21:21;31.80;;;12.17;;
3643;SDS011;1838;50.742;7.158;2024-01-15T01:23:47;30.90;;;13.07;;
3643;SDS011;1838;50.742;7.158;2024-01-15T01:26:15;27.03;;;12.53;;
3643;SDS011;1838;50.742;7.158;2024-01-15T01:28:41;36.70;;;13.20;;
3643;SDS011;1838;50.742;7.158;2024-01-15T01:31:07;34.10;;;14.37;;
3643;SDS011;1838;50.742;7.158;2024-01-15T01:33:33;33.83;;;13.07;;
3643;SDS011;1838;50.742;7.158;2024-01-15T01:35:59;34.30;;;13.20;;
3643;SDS011;1838;50.742;7.158;2024-01-15T01:38:24;37.77;;;13.70;;
3643;SDS011;1838;50.742;7.158;2024-01-15T01:40:50;34.50;;;14.03;;
3643;SDS011;1838;50.742;7.158;2024-01-15T01:43:15;29.73;;;14.00;;
3643;SDS011;1838;50.742;7.158;2024-01-15T01:45:40;35.03;;;13.67;;
3643;SDS011;1838;50.742;7.158;2024-01-15T01:48:06;32.43;;;13.97;;
3643;SDS011;1838;50.742;7.158;2024-01-15T01:50:32;31.87;;;14.10;;
3643;SDS011;1838;50.742;7.158;2024-01-15T01:52:58;26.73;;;13.90;;
3643;SDS011;1838;50.742;7.158;2024-01-15T01:55:26;35.60;;;13.90;;
3643;SDS011;1838;50.742;7.158;2024-01-15T01:57:54;32.30;;;14.00;;
3643;SDS011;1838;50.742;7.158;2024-01-15T02:00:20;31.70;;;13.20;;
3643;SDS011;1838;50.742;7.158;2024-01-15T02:02:46;35.77;;;14.63;;
3643;SDS011;1838;50.742;7.158;2024-01-15T02:05:11;31.77;;;12.43;;
3643;SDS011;1838;50.742;7.158;2024-01-15T02:07:39;41.95;;;15.43;;
3643;SDS011;1838;50.742;7.158;2024-01-15T02:10:05;39.73;;;16.03;;
3643;SDS011;1838;50.742;7.158;2024-01-15T02:12:31;32.50;;;13.77;;
3643;SDS011;1838;50.742;7.158;2024-01-15T02:14:56;41.23;;;15.23;;
3643;SDS011;1838;50.742;7.158;2024-01-15T02:17:22;35.20;;;14.30;;
3643;SDS011;1838;50.742;7.158;2024-01-15T02:19:47;32.03;;;14.80;;
3643;SDS011;1838;50.742;7.158;2024-01-15T02:22:14;32.37;;;14.83;;
3643;SDS011;1838;50.742;7.158;2024-01-15T02:24:39;39.33;;;15.10;;
3643;SDS011;1838;50.742;7.158;2024-01-15T02:27:05;33.50;;;15.10;;
3643;SDS011;1838;50.742;7.158;2024-01-15T02:29:30;27.77;;;14.07;;
3643;SDS011;1838;50.742;7.158;2024-01-15T02:31:56;36.73;;;15.77;;
3643;SDS011;1838;50.742;7.158;2024-01-15T02:34:22;40.10;;;15.17;;
3643;SDS011;1838;50.742;7.158;2024-01-15T02:36:47;41.07;;;15.90;;
3643;SDS011;1838;50.742;7.158;2024-01-15T02:39:13;39.67;;;15.30;;
3643;SDS011;1838;50.742;7.158;2024-01-15T02:41:38;36.83;;;15.20;;
3643;SDS011;1838;50.742;7.158;2024-01-15T02:44:04;43.97;;;15.43;;
3643;SDS011;1838;50.742;7.158;2024-01-15T02:46:29;43.27;;;16.97;;
3643;SDS011;1838;50.742;7.158;2024-01-15T02:48:55;41.27;;;15.73;;
3643;SDS011;1838;50.742;7.158;2024-01-15T02:51:20;39.30;;;16.37;;
3643;SDS011;1838;50.742;7.158;2024-01-15T02:53:46;32.57;;;14.47;;
3643;SDS011;1838;50.742;7.158;2024-01-15T02:56:11;41.80;;;16.47;;
3643;SDS011;1838;50.742;7.158;2024-01-15T02:58:37;36.00;;;16.20;;
3643;SDS011;1838;50.742;7.158;2024-01-15T03:01:02;42.33;;;17.20;;
3643;SDS011;1838;50.742;7.158;2024-01-15T03:03:28;36.87;;;16.50;;
3643;SDS011;1838;50.742;7.158;2024-01-15T03:05:53;37.53;;;14.47;;
3643;SDS011;1838;50.742;7.158;2024-01-15T03:08:19;40.30;;;16.67;;
3643;SDS011;1838;50.742;7.158;2024-01-15T03:10:44;41.73;;;17.00;;
3643;SDS011;1838;50.742;7.158;2024-01-15T03:13:10;33.57;;;14.40;;
3643;SDS011;1838;50.742;7.158;2024-01-15T03:15:35;35.90;;;15.67;;
3643;SDS011;1838;50.742;7.158;2024-01-15T03:18:01;38.43;;;16.03;;
3643;SDS011;1838;50.742;7.158;2024-01-15T03:20:27;46.00;;;17.37;;
3643;SDS011;1838;50.742;7.158;2024-01-15T03:22:52;43.50;;;17.37;;
3643;SDS011;1838;50.742;7.158;2024-01-15T03:25:18;39.97;;;16.00;;
3643;SDS011;1838;50.742;7.158;2024-01-15T03:27:43;31.47;;;15.13;;
3643;SDS011;1838;50.742;7.158;2024-01-15T03:30:09;32.27;;;14.63;;
3643;SDS011;1838;50.742;7.158;2024-01-15T03:32:34;31.43;;;14.30;;
3643;SDS011;1838;50.742;7.158;2024-01-15T03:35:00;32.67;;;14.43;;
3643;SDS011;1838;50.742;7.158;2024-01-15T03:37:25;29.93;;;15.17;;
3643;SDS011;1838;50.742;7.158;2024-01-15T03:39:51;34.13;;;15.67;;
3643;SDS011;1838;50.742;7.158;2024-01-15T03:42:16;25.63;;;13.30;;
3643;SDS011;1838;50.742;7.158;2024-01-15T03:44:42;26.43;;;13.97;;
3643;SDS011;1838;50.742;7.158;2024-01-15T03:47:07;34.83;;;14.20;;
3643;SDS011;1838;50.742;7.158;2024-01-15T03:49:33;26.00;;;12.40;;
3643;SDS011;1838;50.742;7.158;2024-01-15T03:51:58;31.03;;;12.93;;
3643;SDS011;1838;50.742;7.158;2024-01-15T03:54:24;29.80;;;13.53;;
3643;SDS011;1838;50.742;7.158;2024-01-15T03:56:49;33.33;;;14.43;;
3643;SDS011;1838;50.742;7.158;2024-01-15T03:59:15;33.13;;;14.27;;
3643;SDS011;1838;50.742;7.158;2024-01-15T04:01:40;28.47;;;14.93;;
3643;SDS011;1838;50.742;7.158;2024-01-15T04:04:06;35.87;;;15.60;;
3643;SDS011;1838;50.742;7.158;2024-01-15T04:06:31;35.33;;;14.23;;
3643;SDS011;1838;50.742;7.158;2024-01-15T04:08:58;32.30;;;14.37;;
3643;SDS011;1838;50.742;7.158;2024-01-15T04:11:23;36.47;;;13.60;;
3643;SDS011;1838;50.742;7.158;2024-01-15T04:13:49;33.90;;;15.90;;
3643;SDS011;1838;50.742;7.158;2024-01-15T04:16:14;35.07;;;14.20;;
3643;SDS011;1838;50.742;7.158;2024-01-15T04:18:40;30.30;;;13.93;;
3643;SDS011;1838;50.742;7.158;2024-01-15T04:21:05;34.00;;;16.10;;
3643;SDS011;1838;50.742;7.158;2024-01-15T04:23:32;29.10;;;14.73;;
3643;SDS011;1838;50.742;7.158;2024-01-15T04:25:58;32.40;;;15.27;;
3643;SDS011;1838;50.742;7.158;2024-01-15T04:28:23;37.63;;;15.87;;
3643;SDS011;1838;50.742;7.158;2024-01-15T04:30:49;30.33;;;13.23;;
3643;SDS011;1838;50.742;7.158;2024-01-15T04:33:14;29.90;;;15.30;;
3643;SDS011;1838;50.742;7.158;2024-01-15T04:35:39;31.37;;;14.60;;
3643;SDS011;1838;50.742;7.158;2024-01-15T04:38:05;35.93;;;13.97;;
3643;SDS011;1838;50.742;7.158;2024-01-15T04:40:31;30.97;;;13.63;;
3643;SDS011;1838;50.742;7.158;2024-01-15T04:42:56;30.60;;;13.60;;
3643;SDS011;1838;50.742;7.158;2024-01-15T04:45:22;36.00;;;13.53;;
3643;SDS011;1838;50.742;7.158;2024-01-15T04:47:53;32.87;;;14.00;;
3643;SDS011;1838;50.742;7.158;2024-01-15T04:50:18;27.27;;;12.50;;
3643;SDS011;1838;50.742;7.158;2024-01-15T04:52:44;32.07;;;13.27;;
3643;SDS011;1838;50.742;7.158;2024-01-15T04:55:09;23.20;;;11.37;;
3643;SDS011;1838;50.742;7.158;2024-01-15T04:57:35;28.13;;;11.90;;
3643;SDS011;1838;50.742;7.158;2024-01-15T05:00:00;25.97;;;12.40;;
3643;SDS011;1838;50.742;7.158;2024-01-15T05:02:26;28.37;;;12.63;;
3643;SDS011;1838;50.742;7.158;2024-01-15T05:04:51;24.97;;;11.83;;
3643;SDS011;1838;50.742;7.158;2024-01-15T05:07:17;26.23;;;12.23;;
3643;SDS011;1838;50.742;7.158;2024-01-15T05:09:42;27.73;;;12.77;;
3643;SDS011;1838;50.742;7.158;2024-01-15T05:12:08;23.40;;;11.60;;
3643;SDS011;1838;50.742;7.158;2024-01-15T05:14:33;25.53;;;12.93;;
3643;SDS011;1838;50.742;7.158;2024-01-15T05:16:59;25.57;;;12.40;;
3643;SDS011;1838;50.742;7.158;2024-01-15T05:19:24;24.00;;;11.87;;
3643;SDS011;1838;50.742;7.158;2024-01-15T05:21:50;28.23;;;12.70;;
3643;SDS011;1838;50.742;7.158;2024-01-15T05:24:15;25.17;;;12.50;;
3643;SDS011;1838;50.742;7.158;2024-01-15T05:26:41;27.83;;;11.87;;
3643;SDS011;1838;50.742;7.158;2024-01-15T05:29:06;24.67;;;10.87;;
3643;SDS011;1838;50.742;7.158;2024-01-15T05:31:32;25.87;;;11.50;;
3643;SDS011;1838;50.742;7.158;2024-01-15T05:33:57;19.17;;;9.97;;
3643;SDS011;1838;50.742;7.158;2024-01-15T05:36:23;25.57;;;11.20;;
3643;SDS011;1838;50.742;7.158;2024-01-15T05:38:48;24.00;;;11.50;;
3643;SDS011;1838;50.742;7.158;2024-01-15T05:41:14;24.93;;;12.80;;
3643;SDS011;1838;50.742;7.158;2024-01-15T05:43:40;30.63;;;11.30;;
3643;SDS011;1838;50.742;7.158;2024-01-15T05:46:05;26.90;;;12.83;;
3643;SDS011;1838;50.742;7.158;2024-01-15T05:48:31;25.23;;;11.73;;
3643;SDS011;1838;50.742;7.158;2024-01-15T05:50:57;26.60;;;13.03;;
3643;SDS011;1838;50.742;7.158;2024-01-15T05:53:22;34.27;;;12.90;;
3643;SDS011;1838;50.742;7.158;2024-01-15T05:55:48;30.03;;;13.13;;
3643;SDS011;1838;50.742;7.158;2024-01-15T05:58:13;24.43;;;10.93;;
3643;SDS011;1838;50.742;7.158;2024-01-15T06:00:39;24.97;;;11.20;;
3643;SDS011;1838;50.742;7.158;2024-01-15T06:03:04;26.37;;;11.83;;
3643;SDS011;1838;50.742;7.158;2024-01-15T06:05:30;27.10;;;11.73;;
3643;SDS011;1838;50.742;7.158;2024-01-15T06:07:56;18.43;;;10.60;;
3643;SDS011;1838;50.742;7.158;2024-01-15T06:10:21;20.50;;;9.83;;
3643;SDS011;1838;50.742;7.158;2024-01-15T06:12:47;24.93;;;12.20;;
3643;SDS011;1838;50.742;7.158;2024-01-15T06:15:12;30.07;;;12.77;;
3643;SDS011;1838;50.742;7.158;2024-01-15T06:17:38;27.73;;;11.70;;
3643;SDS011;1838;50.742;7.158;2024-01-15T06:20:04;28.60;;;10.20;;
3643;SDS011;1838;50.742;7.158;2024-01-15T06:22:30;25.80;;;11.87;;
3643;SDS011;1838;50.742;7.158;2024-01-15T06:24:55;21.57;;;10.70;;
3643;SDS011;1838;50.742;7.158;2024-01-15T06:27:21;25.53;;;11.90;;
3643;SDS011;1838;50.742;7.158;2024-01-15T06:29:47;27.70;;;12.30;;
3643;SDS011;1838;50.742;7.158;2024-01-15T06:32:12;32.83;;;12.00;;
3643;SDS011;1838;50.742;7.158;2024-01-15T06:34:38;31.33;;;12.47;;
3643;SDS011;1838;50.742;7.158;2024-01-15T06:37:04;29.23;;;11.40;;
3643;SDS011;1838;50.742;7.158;2024-01-15T06:39:30;28.97;;;13.73;;
3643;SDS011;1838;50.742;7.158;2024-01-15T06:41:55;31.07;;;11.77;;
3643;SDS011;1838;50.742;7.158;2024-01-15T06:44:21;31.30;;;13.37;;
3643;SDS011;1838;50.742;7.158;2024-01-15T06:46:46;27.00;;;12.43;;
3643;SDS011;1838;50.742;7.158;2024-01-15T06:49:12;24.60;;;11.40;;
3643;SDS011;1838;50.742;7.158;2024-01-15T06:51:38;20.30;;;11.53;;
3643;SDS011;1838;50.742;7.158;2024-01-15T06:54:04;25.70;;;10.80;;
3643;SDS011;1838;50.742;7.158;2024-01-15T06:56:30;26.23;;;11.90;;
3643;SDS011;1838;50.742;7.158;2024-01-15T06:58:56;24.03;;;11.90;;
3643;SDS011;1838;50.742;7.158;2024-01-15T07:01:22;22.43;;;10.47;;
3643;SDS011;1838;50.742;7.158;2024-01-15T07:03:48;26.87;;;12.27;;
3643;SDS011;1838;50.742;7.158;2024-01-15T07:06:13;24.37;;;11.70;;
3643;SDS011;1838;50.742;7.158;2024-01-15T07:08:39;32.27;;;11.57;;
3643;SDS011;1838;50.742;7.158;2024-01-15T07:11:05;29.63;;;12.80;;
3643;SDS011;1838;50.742;7.158;2024-01-15T07:13:31;27.10;;;12.40;;
3643;SDS011;1838;50.742;7.158;2024-01-15T07:15:57;31.33;;;13.03;;
3643;SDS011;1838;50.742;7.158;2024-01-15T07:18:23;31.40;;;13.03;;
3643;SDS011;1838;50.742;7.158;2024-01-15T07:20:49;33.50;;;13.60;;
3643;SDS011;1838;50.742;7.158;2024-01-15T07:23:14;32.00;;;12.60;;
3643;SDS011;1838;50.742;7.158;2024-01-15T07:25:40;25.63;;;12.50;;
3643;SDS011;1838;50.742;7.158;2024-01-15T07:28:05;32.00;;;12.57;;
3643;SDS011;1838;50.742;7.158;2024-01-15T07:30:31;25.63;;;10.87;;
3643;SDS011;1838;50.742;7.158;2024-01-15T07:32:56;28.20;;;13.50;;
3643;SDS011;1838;50.742;7.158;2024-01-15T07:35:22;35.13;;;12.30;;
3643;SDS011;1838;50.742;7.158;2024-01-15T07:37:47;27.17;;;12.83;;
3643;SDS011;1838;50.742;7.158;2024-01-15T07:40:13;23.27;;;11.73;;
3643;SDS011;1838;50.742;7.158;2024-01-15T07:42:39;24.10;;;10.73;;
3643;SDS011;1838;50.742;7.158;2024-01-15T07:45:05;25.40;;;12.20;;
3643;SDS011;1838;50.742;7.158;2024-01-15T07:47:31;27.60;;;11.73;;
3643;SDS011;1838;50.742;7.158;2024-01-15T07:49:56;23.77;;;11.47;;
3643;SDS011;1838;50.742;7.158;2024-01-15T07:52:22;25.10;;;11.33;;
3643;SDS011;1838;50.742;7.158;2024-01-15T07:54:47;23.73;;;11.30;;
3643;SDS011;1838;50.742;7.158;2024-01-15T07:57:13;27.13;;;11.53;;
3643;SDS011;1838;50.742;7.158;2024-01-15T07:59:39;26.40;;;11.73;;
3643;SDS011;1838;50.742;7.158;2024-01-15T08:02:05;26.03;;;11.87;;
3643;SDS011;1838;50.742;7.158;2024-01-15T08:04:31;26.57;;;11.80;;
3643;SDS011;1838;50.742;7.158;2024-01-15T08:06:56;23.80;;;11.10;;
3643;SDS011;1838;50.742;7.158;2024-01-15T08:09:22;29.13;;;13.20;;
3643;SDS011;1838;50.742;7.158;2024-01-15T08:11:47;26.47;;;11.90;;
3643;SDS011;1838;50.742;7.158;2024-01-15T08:14:14;27.57;;;11.60;;
3643;SDS011;1838;50.742;7.158;2024-01-15T08:16:40;33.00;;;11.73;;
3643;SDS011;1838;50.742;7.158;2024-01-15T08:19:06;30.40;;;12.77;;
3643;SDS011;1838;50.742;7.158;2024-01-15T08:21:32;29.17;;;12.13;;
3643;SDS011;1838;50.742;7.158;2024-01-15T08:23:58;28.67;;;11.30;;
3643;SDS011;1838;50.742;7.158;2024-01-15T08:26:25;20.50;;;10.80;;
3643;SDS011;1838;50.742;7.158;2024-01-15T08:28:50;22.20;;;11.50;;
3643;SDS011;1838;50.742;7.158;2024-01-15T08:31:16;20.20;;;10.83;;
3643;SDS011;1838;50.742;7.158;2024-01-15T08:33:42;21.03;;;10.03;;
3643;SDS011;1838;50.742;7.158;2024-01-15T08:36:07;17.98;;;8.50;;
3643;SDS011;1838;50.742;7.158;2024-01-15T08:38:34;22.83;;;9.70;;
3643;SDS011;1838;50.742;7.158;2024-01-15T08:40:59;33.47;;;9.87;;
3643;SDS011;1838;50.742;7.158;2024-01-15T08:43:25;25.40;;;10.20;;
3643;SDS011;1838;50.742;7.158;2024-01-15T08:45:52;23.73;;;10.20;;
3643;SDS011;1838;50.742;7.158;2024-01-15T08:48:17;22.40;;;9.87;;
3643;SDS011;1838;50.742;7.158;2024-01-15T08:50:43;22.97;;;10.70;;
3643;SDS011;1838;50.742;7.158;2024-01-15T08:53:10;23.20;;;9.30;;
3643;SDS011;1838;50.742;7.158;2024-01-15T08:55:36;21.30;;;10.10;;
3643;SDS011;1838;50.742;7.158;2024-01-15T08:58:02;24.10;;;10.83;;
3643;SDS011;1838;50.742;7.158;2024-01-15T09:00:28;28.73;;;10.47;;
3643;SDS011;1838;50.742;7.158;2024-01-15T09:02:53;26.13;;;11.83;;
3643;SDS011;1838;50.742;7.158;2024-01-15T09:05:19;27.87;;;10.37;;
3643;SDS011;1838;50.742;7.158;2024-01-15T09:07:44;28.70;;;10.20;;
3643;SDS011;1838;50.742;7.158;2024-01-15T09:10:11;20.97;;;10.30;;
3643;SDS011;1838;50.742;7.158;2024-01-15T09:12:36;25.20;;;11.20;;
3643;SDS011;1838;50.742;7.158;2024-01-15T09:15:02;24.17;;;9.87;;
3643;SDS011;1838;50.742;7.158;2024-01-15T09:17:29;25.20;;;10.10;;
3643;SDS011;1838;50.742;7.158;2024-01-15T09:19:54;27.73;;;11.23;;
3643;SDS011;1838;50.742;7.158;2024-01-15T09:22:20;24.30;;;10.27;;
3643;SDS011;1838;50.742;7.158;2024-01-15T09:24:45;29.83;;;11.40;;
3643;SDS011;1838;50.742;7.158;2024-01-15T09:27:12;25.73;;;10.43;;
3643;SDS011;1838;50.742;7.158;2024-01-15T09:29:38;21.87;;;10.10;;
3643;SDS011;1838;50.742;7.158;2024-01-15T09:32:06;20.70;;;9.95;;
3643;SDS011;1838;50.742;7.158;2024-01-15T09:34:32;22.43;;;9.70;;
3643;SDS011;1838;50.742;7.158;2024-01-15T09:36:58;20.40;;;8.60;;
3643;SDS011;1838;50.742;7.158;2024-01-15T09:39:25;31.90;;;10.70;;
3643;SDS011;1838;50.742;7.158;2024-01-15T09:41:51;27.87;;;10.10;;
3643;SDS011;1838;50.742;7.158;2024-01-15T09:44:17;23.20;;;10.60;;
3643;SDS011;1838;50.742;7.158;2024-01-15T09:46:43;17.53;;;9.43;;
3643;SDS011;1838;50.742;7.158;2024-01-15T09:49:10;21.33;;;10.63;;
3643;SDS011;1838;50.742;7.158;2024-01-15T09:51:35;20.90;;;9.37;;
3643;SDS011;1838;50.742;7.158;2024-01-15T09:54:02;24.07;;;8.20;;
3643;SDS011;1838;50.742;7.158;2024-01-15T09:56:29;20.97;;;9.87;;
3643;SDS011;1838;50.742;7.158;2024-01-15T09:58:55;23.73;;;8.30;;
3643;SDS011;1838;50.742;7.158;2024-01-15T10:01:22;19.57;;;9.60;;
3643;SDS011;1838;50.742;7.158;2024-01-15T10:03:49;15.17;;;8.30;;
3643;SDS011;1838;50.742;7.158;2024-01-15T10:06:15;18.73;;;8.00;;
3643;SDS011;1838;50.742;7.158;2024-01-15T10:08:48;13.77;;;7.47;;
3643;SDS011;1838;50.742;7.158;2024-01-15T10:11:15;20.00;;;10.70;;
3643;SDS011;1838;50.742;7.158;2024-01-15T10:13:42;21.13;;;8.80;;
3643;SDS011;1838;50.742;7.158;2024-01-15T10:16:08;15.70;;;8.33;;
3643;SDS011;1838;50.742;7.158;2024-01-15T10:18:34;40.43;;;10.83;;
3643;SDS011;1838;50.742;7.158;2024-01-15T10:21:00;23.87;;;10.80;;
3643;SDS011;1838;50.742;7.158;2024-01-15T10:23:28;15.77;;;9.37;;
3643;SDS011;1838;50.742;7.158;2024-01-15T10:25:53;22.87;;;9.53;;
3643;SDS011;1838;50.742;7.158;2024-01-15T10:28:21;23.20;;;10.30;;
3643;SDS011;1838;50.742;7.158;2024-01-15T10:30:46;19.13;;;8.73;;
3643;SDS011;1838;50.742;7.158;2024-01-15T10:33:16;22.48;;;11.18;;
3643;SDS011;1838;50.742;7.158;2024-01-15T10:35:47;16.53;;;9.30;;
3643;SDS011;1838;50.742;7.158;2024-01-15T10:38:13;21.33;;;9.77;;
3643;SDS011;1838;50.742;7.158;2024-01-15T10:40:39;20.67;;;9.63;;
3643;SDS011;1838;50.742;7.158;2024-01-15T10:43:04;19.53;;;9.90;;
3643;SDS011;1838;50.742;7.158;2024-01-15T10:45:30;19.57;;;9.30;;
3643;SDS011;1838;50.742;7.158;2024-01-15T10:47:55;16.83;;;9.70;;
3643;SDS011;1838;50.742;7.158;2024-01-15T10:50:23;24.10;;;10.00;;
3643;SDS011;1838;50.742;7.158;2024-01-15T10:52:49;23.27;;;10.60;;
3643;SDS011;1838;50.742;7.158;2024-01-15T10:55:16;22.07;;;9.57;;
3643;SDS011;1838;50.742;7.158;2024-01-15T10:57:43;23.13;;;10.10;;
3643;SDS011;1838;50.742;7.158;2024-01-15T11:00:10;19.40;;;9.50;;
3643;SDS011;1838;50.742;7.158;2024-01-15T11:02:39;19.50;;;9.83;;
3643;SDS011;1838;50.742;7.158;2024-01-15T11:05:05;20.43;;;10.57;;
3643;SDS011;1838;50.742;7.158;2024-01-15T11:07:31;19.13;;;9.97;;
3643;SDS011;1838;50.742;7.158;2024-01-15T11:09:57;23.37;;;11.10;;
3643;SDS011;1838;50.742;7.158;2024-01-15T11:12:25;16.63;;;9.17;;
3643;SDS011;1838;50.742;7.158;2024-01-15T11:14:51;20.13;;;8.80;;
3643;SDS011;1838;50.742;7.158;2024-01-15T11:17:19;15.53;;;8.43;;
3643;SDS011;1838;50.742;7.158;2024-01-15T11:19:45;12.50;;;7.23;;
3643;SDS011;1838;50.742;7.158;2024-01-15T11:24:55;17.63;;;9.07;;
3643;SDS011;1838;50.742;7.158;2024-01-15T11:27:40;14.73;;;8.70;;
3643;SDS011;1838;50.742;7.158;2024-01-15T11:30:11;22.93;;;8.63;;
3643;SDS011;1838;50.742;7.158;2024-01-15T11:32:37;17.03;;;8.87;;
3643;SDS011;1838;50.742;7.158;2024-01-15T11:35:06;22.33;;;9.97;;
3643;SDS011;1838;50.742;7.158;2024-01-15T11:40:21;21.53;;;10.40;;
3643;SDS011;1838;50.742;7.158;2024-01-15T11:42:57;14.77;;;9.33;;
3643;SDS011;1838;50.742;7.158;2024-01-15T11:45:23;19.90;;;10.00;;
3643;SDS011;1838;50.742;7.158;2024-01-15T11:50:39;23.70;;;10.07;;
3643;SDS011;1838;50.742;7.158;2024-01-15T11:53:11;16.67;;;9.50;;
3643;SDS011;1838;50.742;7.158;2024-01-15T11:55:43;19.50;;;9.90;;
3643;SDS011;1838;50.742;7.158;2024-01-15T11:58:10;17.40;;;10.03;;
3643;SDS011;1838;50.742;7.158;2024-01-15T12:00:40;15.37;;;10.50;;
3643;SDS011;1838;50.742;7.158;2024-01-15T12:03:09;22.30;;;9.80;;
3643;SDS011;1838;50.742;7.158;2024-01-15T12:05:36;18.50;;;10.40;;
3643;SDS011;1838;50.742;7.158;2024-01-15T12:08:02;21.93;;;10.70;;
3643;SDS011;1838;50.742;7.158;2024-01-15T12:10:28;19.87;;;11.20;;
3643;SDS011;1838;50.742;7.158;2024-01-15T12:12:58;19.10;;;11.10;;
3643;SDS011;1838;50.742;7.158;2024-01-15T12:15:33;20.60;;;11.20;;
3643;SDS011;1838;50.742;7.158;2024-01-15T12:18:00;19.77;;;10.73;;
3643;SDS011;1838;50.742;7.158;2024-01-15T12:20:30;30.07;;;11.17;;
3643;SDS011;1838;50.742;7.158;2024-01-15T12:22:56;24.20;;;10.70;;
3643;SDS011;1838;50.742;7.158;2024-01-15T12:25:23;28.87;;;12.00;;
3643;SDS011;1838;50.742;7.158;2024-01-15T12:27:49;39.70;;;13.37;;
3643;SDS011;1838;50.742;7.158;2024-01-15T12:30:16;25.70;;;11.43;;
3643;SDS011;1838;50.742;7.158;2024-01-15T12:32:42;26.93;;;11.50;;
3643;SDS011;1838;50.742;7.158;2024-01-15T12:35:08;26.73;;;12.00;;
3643;SDS011;1838;50.742;7.158;2024-01-15T12:37:41;32.00;;;13.43;;
3643;SDS011;1838;50.742;7.158;2024-01-15T12:40:08;29.20;;;11.23;;
3643;SDS011;1838;50.742;7.158;2024-01-15T12:42:35;26.47;;;10.87;;
3643;SDS011;1838;50.742;7.158;2024-01-15T12:45:01;20.63;;;10.07;;
3643;SDS011;1838;50.742;7.158;2024-01-15T12:47:29;21.30;;;11.07;;
3643;SDS011;1838;50.742;7.158;2024-01-15T12:49:55;32.10;;;11.97;;
3643;SDS011;1838;50.742;7.158;2024-01-15T12:52:26;21.50;;;9.77;;
3643;SDS011;1838;50.742;7.158;2024-01-15T12:54:52;20.80;;;9.00;;
3643;SDS011;1838;50.742;7.158;2024-01-15T12:57:17;26.13;;;9.97;;
3643;SDS011;1838;50.742;7.158;2024-01-15T12:59:43;16.93;;;9.47;;
3643;SDS011;1838;50.742;7.158;2024-01-15T13:02:10;13.80;;;8.10;;
3643;SDS011;1838;50.742;7.158;2024-01-15T13:04:37;15.80;;;8.30;;
3643;SDS011;1838;50.742;7.158;2024-01-15T13:07:03;12.40;;;7.87;;
3643;SDS011;1838;50.742;7.158;2024-01-15T13:09:29;21.33;;;8.70;;
3643;SDS011;1838;50.742;7.158;2024-01-15T13:11:55;13.20;;;7.67;;
3643;SDS011;1838;50.742;7.158;2024-01-15T13:14:21;16.03;;;8.40;;
3643;SDS011;1838;50.742;7.158;2024-01-15T13:16:46;12.60;;;7.07;;
3643;SDS011;1838;50.742;7.158;2024-01-15T13:19:12;21.63;;;8.47;;
3643;SDS011;1838;50.742;7.158;2024-01-15T13:21:38;14.67;;;7.63;;
3643;SDS011;1838;50.742;7.158;2024-01-15T13:24:06;18.90;;;8.17;;
3643;SDS011;1838;50.742;7.158;2024-01-15T13:26:32;12.53;;;6.90;;
3643;SDS011;1838;50.742;7.158;2024-01-15T13:29:01;10.33;;;6.40;;
3643;SDS011;1838;50.742;7.158;2024-01-15T13:31:28;17.23;;;7.70;;
3643;SDS011;1838;50.742;7.158;2024-01-15T13:33:54;21.67;;;6.97;;
3643;SDS011;1838;50.742;7.158;2024-01-15T13:36:21;11.53;;;7.10;;
3643;SDS011;1838;50.742;7.158;2024-01-15T13:38:50;14.00;;;7.13;;
3643;SDS011;1838;50.742;7.158;2024-01-15T13:41:17;8.30;;;5.80;;
3643;SDS011;1838;50.742;7.158;2024-01-15T13:44:09;19.57;;;7.10;;
3643;SDS011;1838;50.742;7.158;2024-01-15T13:46:35;11.00;;;6.50;;
3643;SDS011;1838;50.742;7.158;2024-01-15T13:49:00;22.43;;;7.50;;
3643;SDS011;1838;50.742;7.158;2024-01-15T13:51:27;9.00;;;5.77;;
3643;SDS011;1838;50.742;7.158;2024-01-15T13:53:52;20.23;;;6.07;;
3643;SDS011;1838;50.742;7.158;2024-01-15T13:56:18;11.20;;;6.47;;
3643;SDS011;1838;50.742;7.158;2024-01-15T13:58:43;15.30;;;6.97;;
3643;SDS011;1838;50.742;7.158;2024-01-15T14:01:09;26.90;;;6.70;;
3643;SDS011;1838;50.742;7.158;2024-01-15T14:03:35;7.00;;;6.10;;
3643;SDS011;1838;50.742;7.158;2024-01-15T14:06:01;8.50;;;5.53;;
3643;SDS011;1838;50.742;7.158;2024-01-15T14:08:33;10.40;;;6.03;;
3643;SDS011;1838;50.742;7.158;2024-01-15T14:11:00;13.33;;;6.50;;
3643;SDS011;1838;50.742;7.158;2024-01-15T14:13:25;10.37;;;5.93;;
3643;SDS011;1838;50.742;7.158;2024-01-15T14:15:51;14.67;;;6.30;;
3643;SDS011;1838;50.742;7.158;2024-01-15T14:18:16;9.90;;;6.77;;
3643;SDS011;1838;50.742;7.158;2024-01-15T14:20:42;7.40;;;5.80;;
3643;SDS011;1838;50.742;7.158;2024-01-15T14:23:08;14.00;;;7.47;;
3643;SDS011;1838;50.742;7.158;2024-01-15T14:25:34;6.70;;;4.77;;
3643;SDS011;1838;50.742;7.158;2024-01-15T14:27:59;9.63;;;5.40;;
3643;SDS011;1838;50.742;7.158;2024-01-15T14:30:25;13.30;;;5.67;;
3643;SDS011;1838;50.742;7.158;2024-01-15T14:32:50;12.20;;;5.93;;
3643;SDS011;1838;50.742;7.158;2024-01-15T14:35:16;8.83;;;5.07;;
3643;SDS011;1838;50.742;7.158;2024-01-15T14:37:41;7.80;;;5.17;;
3643;SDS011;1838;50.742;7.158;2024-01-15T14:40:07;6.33;;;5.23;;
3643;SDS011;1838;50.742;7.158;2024-01-15T14:42:33;9.80;;;5.60;;
3643;SDS011;1838;50.742;7.158;2024-01-15T14:44:59;8.50;;;4.90;;
3643;SDS011;1838;50.742;7.158;2024-01-15T14:47:26;10.77;;;5.43;;
3643;SDS011;1838;50.742;7.158;2024-01-15T14:49:52;7.43;;;4.50;;
3643;SDS011;1838;50.742;7.158;2024-01-15T14:52:18;10.53;;;5.03;;
3643;SDS011;1838;50.742;7.158;2024-01-15T14:54:43;13.60;;;4.53;;